Time;durP1;ratioP1;P1;durP2;ratioP2;P2;SDS_P1;SDS_P2;PMS_P1;PMS_P2;Temp;Humidity;BMP_temperature;BMP_pressure;BME280_temperature;BME280_humidity;BME280_pressure;Samples;Min_cycle;Max_cycle;Signal;HPM_P1;HPM_P2
2021/05/27 00:01:52;;;;;;;15.70;12.38;;;11.70;90.20;;;;;;5070752;28;20020;-79
2021/05/27 00:04:18;;;;;;;19.40;12.43;;;11.70;92.20;;;;;;5059803;28;20040;-79
2021/05/27 00:06:44;;;;;;;18.40;12.93;;;11.70;91.20;;;;;;5055914;28;20104;-79
2021/05/27 00:09:09;;;;;;;14.75;11.95;;;11.70;91.50;;;;;;5074072;28;20044;-80
2021/05/27 00:11:35;;;;;;;12.85;10.40;;;11.70;91.30;;;;;;5075405;28;20056;-79
2021/05/27 00:14:00;;;;;;;13.38;11.25;;;11.70;91.60;;;;;;5075231;28;20437;-79
2021/05/27 00:16:26;;;;;;;11.98;9.77;;;11.60;92.20;;;;;;5075173;28;20036;-79
2021/05/27 00:18:52;;;;;;;15.18;9.85;;;11.60;90.50;;;;;;5073342;28;20021;-79
2021/05/27 00:21:21;;;;;;;16.17;9.90;;;11.60;88.20;;;;;;5053718;28;20029;-79
2021/05/27 00:23:47;;;;;;;10.63;7.72;;;11.60;86.90;;;;;;5054034;28;20037;-79
2021/05/27 00:26:13;;;;;;;11.35;6.97;;;11.60;88.40;;;;;;5053768;28;20386;-79
2021/05/27 00:28:39;;;;;;;10.30;6.45;;;11.60;87.20;;;;;;5054958;28;20522;-80
2021/05/27 00:31:05;;;;;;;7.57;5.72;;;11.60;85.50;;;;;;5053806;28;20052;-79
2021/05/27 00:33:31;;;;;;;8.82;5.53;;;11.60;83.80;;;;;;5053476;28;20049;-79
2021/05/27 00:35:57;;;;;;;6.97;4.68;;;11.60;83.90;;;;;;5053557;28;20021;-79
2021/05/27 00:38:23;;;;;;;8.25;5.03;;;11.60;81.40;;;;;;5054744;28;20363;-79
2021/05/27 00:40:48;;;;;;;8.95;4.90;;;11.60;81.70;;;;;;5053445;28;20021;-80
2021/05/27 00:43:14;;;;;;;5.80;4.65;;;11.60;82.80;;;;;;5053325;28;20037;-79
2021/05/27 00:45:40;;;;;;;9.60;4.53;;;11.60;82.80;;;;;;5054557;28;20027;-79
2021/05/27 00:48:05;;;;;;;8.35;4.85;;;11.60;83.60;;;;;;5053377;28;20024;-79
2021/05/27 00:50:31;;;;;;;8.00;4.80;;;11.60;82.90;;;;;;5054487;28;20025;-79
2021/05/27 00:52:58;;;;;;;5.00;3.70;;;11.60;81.80;;;;;;5053197;28;20483;-79
2021/05/27 00:55:26;;;;;;;6.93;3.97;;;11.70;80.30;;;;;;5054822;28;20021;-79
2021/05/27 00:57:55;;;;;;;4.95;3.80;;;11.70;82.00;;;;;;5074316;28;20032;-79
2021/05/27 01:00:23;;;;;;;6.13;3.50;;;11.60;81.60;;;;;;5074355;28;20028;-79
2021/05/27 01:02:49;;;;;;;7.30;3.90;;;11.70;80.40;;;;;;5072825;28;20060;-79
2021/05/27 01:05:16;;;;;;;9.57;4.15;;;11.70;79.60;;;;;;5074214;28;20070;-79
2021/05/27 01:07:42;;;;;;;6.05;4.28;;;11.80;77.90;;;;;;5072819;28;20021;-80
2021/05/27 01:10:10;;;;;;;8.15;3.63;;;11.80;78.20;;;;;;5074143;28;20017;-79
2021/05/27 01:12:36;;;;;;;6.55;4.05;;;11.80;79.80;;;;;;5072742;28;20509;-79
2021/05/27 01:17:48;;;;;;;9.00;3.97;;;11.80;80.40;;;;;;5074090;28;20067;-79
2021/05/27 01:20:14;;;;;;;4.82;3.08;;;11.80;79.60;;;;;;5073982;28;20048;-79
2021/05/27 01:22:40;;;;;;;4.13;2.83;;;11.80;78.00;;;;;;5073765;28;20032;-79
2021/05/27 01:25:07;;;;;;;4.22;3.25;;;11.80;77.40;;;;;;5072663;28;20074;-79
2021/05/27 01:27:34;;;;;;;5.78;2.85;;;11.70;77.20;;;;;;5072412;28;20048;-79
2021/05/27 01:30:00;;;;;;;5.88;3.22;;;11.80;77.70;;;;;;5092800;28;20127;-79
2021/05/27 01:32:25;;;;;;;8.23;3.60;;;11.80;78.60;;;;;;5092654;28;20048;-79
2021/05/27 01:34:51;;;;;;;5.47;3.08;;;11.80;78.10;;;;;;5092498;28;20488;-79
2021/05/27 01:37:16;;;;;;;6.72;3.30;;;11.80;77.40;;;;;;5092574;28;20023;-79
2021/05/27 01:39:46;;;;;;;6.60;3.22;;;11.90;76.80;;;;;;5093823;28;20024;-78
2021/05/27 01:42:12;;;;;;;7.75;3.45;;;11.90;76.80;;;;;;5092489;28;20032;-79
2021/05/27 01:44:37;;;;;;;5.78;2.55;;;11.90;77.90;;;;;;5093636;28;20039;-79
2021/05/27 01:47:03;;;;;;;6.03;3.58;;;11.90;77.80;;;;;;5093725;28;20016;-79
2021/05/27 01:49:29;;;;;;;8.63;3.63;;;11.90;77.10;;;;;;5093599;28;20388;-79
2021/05/27 01:51:54;;;;;;;4.25;2.55;;;11.90;76.00;;;;;;5092410;28;20032;-79
2021/05/27 01:54:20;;;;;;;5.57;2.78;;;11.90;79.20;;;;;;5092326;28;20020;-80
2021/05/27 01:56:45;;;;;;;5.03;3.22;;;11.90;76.00;;;;;;5081618;28;20024;-79
2021/05/27 01:59:11;;;;;;;4.07;2.83;;;11.90;74.70;;;;;;5073248;28;20140;-79
2021/05/27 02:01:37;;;;;;;4.82;2.90;;;12.00;75.20;;;;;;5073219;28;20056;-79
2021/05/27 02:04:03;;;;;;;3.42;3.13;;;12.00;77.30;;;;;;5073087;28;20028;-79
2021/05/27 02:06:28;;;;;;;4.75;2.88;;;11.90;78.40;;;;;;5083709;28;20036;-79
2021/05/27 02:09:10;;;;;;;5.97;3.00;;;11.90;78.30;;;;;;5093348;28;20024;-79
2021/05/27 02:11:37;;;;;;;5.13;3.05;;;11.80;82.10;;;;;;5092110;28;20032;-79
2021/05/27 02:14:05;;;;;;;4.07;3.15;;;11.80;83.30;;;;;;5056293;28;20078;-79
2021/05/27 02:16:30;;;;;;;4.53;3.15;;;11.70;84.10;;;;;;5051717;28;20523;-80
2021/05/27 02:18:56;;;;;;;5.68;3.22;;;11.70;81.60;;;;;;5052965;28;20056;-79
2021/05/27 02:21:22;;;;;;;4.40;3.90;;;11.70;80.10;;;;;;5062139;28;20024;-79
2021/05/27 02:23:50;;;;;;;7.30;3.45;;;11.60;79.30;;;;;;5072784;28;20119;-79
2021/05/27 02:26:16;;;;;;;3.20;1.90;;;11.50;79.30;;;;;;5063808;28;20098;-79
2021/05/27 02:28:41;;;;;;;3.00;2.20;;;11.50;75.60;;;;;;5088922;28;20111;-79
2021/05/27 02:31:07;;;;;;;6.55;1.73;;;11.50;73.70;;;;;;5076829;28;20025;-79
2021/05/27 02:33:33;;;;;;;4.88;1.63;;;11.60;70.70;;;;;;5073822;28;20028;-79
2021/05/27 02:35:58;;;;;;;1.33;0.90;;;11.70;67.40;;;;;;5069644;28;20025;-79
2021/05/27 02:38:24;;;;;;;1.05;1.00;;;11.80;65.80;;;;;;5054847;28;20052;-79
2021/05/27 02:40:50;;;;;;;0.60;0.60;;;11.80;64.90;;;;;;5072831;28;20523;-79
2021/05/27 02:43:15;;;;;;;1.25;0.90;;;11.90;64.10;;;;;;5071379;28;20085;-79
2021/05/27 02:45:41;;;;;;;1.15;0.60;;;11.90;64.40;;;;;;5072651;28;20175;-79
2021/05/27 02:48:07;;;;;;;0.60;0.60;;;12.00;64.90;;;;;;5073818;28;20082;-79
2021/05/27 02:50:33;;;;;;;1.70;0.85;;;12.00;64.80;;;;;;5076751;28;20028;-79
2021/05/27 02:52:58;;;;;;;0.77;0.70;;;12.00;64.30;;;;;;5076747;28;20040;-79
2021/05/27 02:55:24;;;;;;;1.67;0.90;;;12.00;64.90;;;;;;5076299;28;20123;-79
2021/05/27 02:57:49;;;;;;;2.78;0.80;;;12.00;64.80;;;;;;5076340;28;20020;-79
2021/05/27 03:00:15;;;;;;;1.02;0.80;;;12.00;63.00;;;;;;5075366;28;20032;-80
2021/05/27 03:02:41;;;;;;;7.88;0.90;;;12.10;62.90;;;;;;5074770;28;20039;-79
2021/05/27 03:05:08;;;;;;;0.85;0.63;;;12.00;63.10;;;;;;5074948;28;20450;-80
2021/05/27 03:07:33;;;;;;;1.90;0.73;;;12.00;63.40;;;;;;5076399;28;20032;-79
2021/05/27 03:09:59;;;;;;;1.95;0.68;;;12.10;63.70;;;;;;5060937;28;20051;-79
2021/05/27 03:12:25;;;;;;;1.55;0.73;;;12.10;63.30;;;;;;5056334;28;20110;-79
2021/05/27 03:14:50;;;;;;;3.00;0.70;;;12.10;63.40;;;;;;5056361;28;20395;-80
2021/05/27 03:17:16;;;;;;;2.38;0.70;;;12.10;64.40;;;;;;5056162;28;20043;-80
2021/05/27 03:19:41;;;;;;;0.82;0.73;;;12.10;64.80;;;;;;5055009;28;20066;-79
2021/05/27 03:22:07;;;;;;;2.97;0.82;;;12.10;64.90;;;;;;5054933;28;20025;-79
2021/05/27 03:24:33;;;;;;;1.33;0.80;;;12.10;65.00;;;;;;5056016;28;20078;-79
2021/05/27 03:26:58;;;;;;;0.68;0.68;;;12.10;66.40;;;;;;5056125;28;20031;-79
2021/05/27 03:29:24;;;;;;;1.05;0.70;;;12.20;65.10;;;;;;5056008;28;20039;-80
2021/05/27 03:31:49;;;;;;;2.65;0.57;;;12.10;65.60;;;;;;5063630;28;20016;-79
2021/05/27 03:34:15;;;;;;;2.25;0.70;;;12.10;65.20;;;;;;5075973;28;20081;-80
2021/05/27 03:36:41;;;;;;;3.60;0.70;;;12.20;65.40;;;;;;5059973;28;20107;-79
2021/05/27 03:39:07;;;;;;;0.90;0.75;;;12.10;65.30;;;;;;5063367;28;20033;-80
2021/05/27 03:41:32;;;;;;;0.50;0.50;;;12.20;65.90;;;;;;5074636;28;20036;-79
2021/05/27 03:43:58;;;;;;;1.05;0.70;;;12.20;65.90;;;;;;5075689;28;20036;-79
2021/05/27 03:46:23;;;;;;;0.80;0.80;;;12.20;65.00;;;;;;5075550;28;20017;-80
2021/05/27 03:48:49;;;;;;;1.60;0.60;;;12.20;65.80;;;;;;5075967;28;20063;-79
2021/05/27 03:51:15;;;;;;;0.63;0.63;;;12.30;66.40;;;;;;5083322;28;20376;-79
2021/05/27 03:53:40;;;;;;;0.82;0.70;;;12.30;65.50;;;;;;5094543;28;20027;-79
2021/05/27 03:56:07;;;;;;;0.50;0.50;;;12.40;65.90;;;;;;5095654;28;20020;-79
2021/05/27 04:01:16;;;;;;;1.48;1.23;;;12.40;65.30;;;;;;5055811;28;20520;-79
2021/05/27 04:09:13;;;;;;;0.80;0.80;;;12.70;65.70;;;;;;5066796;28;20108;-79
2021/05/27 04:11:40;;;;;;;0.73;0.50;;;13.00;64.90;;;;;;5053956;28;20059;-79
2021/05/27 04:14:05;;;;;;;1.17;0.55;;;13.30;64.30;;;;;;5053967;28;20029;-80
2021/05/27 04:16:31;;;;;;;4.57;0.70;;;13.80;65.50;;;;;;5058991;28;20059;-79
2021/05/27 04:18:57;;;;;;;1.13;0.63;;;14.20;63.00;;;;;;5055066;28;20023;-79
2021/05/27 04:21:22;;;;;;;2.17;0.70;;;14.50;60.80;;;;;;5053877;28;20028;-79
2021/05/27 04:23:48;;;;;;;1.98;0.70;;;14.80;59.70;;;;;;5053632;28;20068;-79
2021/05/27 04:26:15;;;;;;;1.80;0.63;;;15.00;59.10;;;;;;5067458;28;20024;-80
2021/05/27 04:28:44;;;;;;;0.77;0.60;;;15.20;58.70;;;;;;5074883;28;20024;-79
2021/05/27 04:31:14;;;;;;;3.58;1.15;;;15.50;58.80;;;;;;5073403;28;20484;-80
2021/05/27 04:33:49;;;;;;;0.90;0.60;;;15.50;57.70;;;;;;5054777;28;20048;-79
2021/05/27 04:36:17;;;;;;;0.88;0.82;;;15.70;57.70;;;;;;5057486;28;20024;-80
2021/05/27 04:38:43;;;;;;;0.93;0.63;;;15.60;57.10;;;;;;5073444;28;20031;-79
2021/05/27 04:41:09;;;;;;;1.85;0.60;;;15.50;57.90;;;;;;5074738;28;20366;-79
2021/05/27 04:43:35;;;;;;;1.25;0.85;;;15.30;57.80;;;;;;5073294;28;20036;-79
2021/05/27 04:46:02;;;;;;;2.10;0.80;;;15.00;58.30;;;;;;5072465;28;20392;-79
2021/05/27 04:48:27;;;;;;;2.08;0.80;;;14.60;59.40;;;;;;5072651;28;20029;-80
2021/05/27 04:50:54;;;;;;;4.10;0.90;;;14.30;59.90;;;;;;5072169;28;20111;-80
2021/05/27 04:53:22;;;;;;;1.30;0.70;;;14.20;61.20;;;;;;5073102;28;20119;-79
2021/05/27 04:55:48;;;;;;;1.48;1.38;;;13.90;61.50;;;;;;5066112;28;20020;-80
2021/05/27 04:58:14;;;;;;;1.65;0.95;;;13.70;61.30;;;;;;5072383;28;20501;-80
2021/05/27 05:00:40;;;;;;;0.80;0.73;;;13.60;62.40;;;;;;5070913;28;20043;-80
2021/05/27 05:03:06;;;;;;;0.95;0.82;;;13.60;63.40;;;;;;5063094;28;20063;-79
2021/05/27 05:05:33;;;;;;;2.17;1.13;;;13.50;64.10;;;;;;5054499;28;20077;-79
2021/05/27 05:07:59;;;;;;;1.27;1.08;;;13.40;63.40;;;;;;5053780;28;20475;-80
2021/05/27 05:10:27;;;;;;;3.70;1.40;;;13.50;64.70;;;;;;5068775;28;20032;-80
2021/05/27 05:12:53;;;;;;;1.67;1.10;;;13.60;65.60;;;;;;5072556;28;20115;-80
2021/05/27 05:15:27;;;;;;;1.85;1.20;;;13.50;65.60;;;;;;5062179;28;20020;-79
2021/05/27 05:17:54;;;;;;;2.92;1.20;;;13.50;65.20;;;;;;5058618;28;20037;-80
2021/05/27 05:20:23;;;;;;;1.98;1.00;;;13.40;65.40;;;;;;5056928;28;20429;-80
2021/05/27 05:22:49;;;;;;;2.25;1.20;;;13.40;64.40;;;;;;5053499;28;20025;-80
2021/05/27 05:25:16;;;;;;;5.85;1.40;;;13.50;65.40;;;;;;5053920;28;20029;-80
2021/05/27 05:27:42;;;;;;;1.30;1.10;;;13.50;64.70;;;;;;5052540;28;20070;-81
2021/05/27 05:30:09;;;;;;;1.23;1.00;;;13.60;64.40;;;;;;5053813;28;20391;-80
2021/05/27 05:32:35;;;;;;;1.23;1.13;;;13.70;65.50;;;;;;5062422;28;20055;-80
2021/05/27 05:35:01;;;;;;;1.63;1.02;;;13.70;64.80;;;;;;5052530;28;20025;-80
2021/05/27 05:37:27;;;;;;;1.88;1.00;;;13.70;64.90;;;;;;5064194;28;20024;-80
2021/05/27 05:39:53;;;;;;;4.35;1.17;;;13.90;65.60;;;;;;5073634;28;20039;-80
2021/05/27 05:42:19;;;;;;;1.73;1.40;;;14.00;64.40;;;;;;5073577;28;20032;-80
2021/05/27 05:44:45;;;;;;;3.72;1.08;;;14.20;63.90;;;;;;5073426;28;20402;-80
2021/05/27 05:47:10;;;;;;;3.17;1.88;;;14.40;62.50;;;;;;5062434;28;20032;-81
2021/05/27 05:49:36;;;;;;;4.28;1.48;;;14.40;61.20;;;;;;5053740;28;20029;-80
2021/05/27 05:52:02;;;;;;;5.20;2.03;;;14.50;60.80;;;;;;5052199;28;20027;-81
2021/05/27 05:54:28;;;;;;;3.05;1.45;;;14.70;62.10;;;;;;5053277;28;20543;-81
2021/05/27 05:56:53;;;;;;;2.35;1.30;;;14.90;60.20;;;;;;5053348;28;20094;-80
2021/05/27 05:59:19;;;;;;;2.03;1.52;;;15.20;60.50;;;;;;5052245;28;20047;-81
2021/05/27 06:01:45;;;;;;;4.10;1.60;;;15.20;58.60;;;;;;5055383;28;20460;-81
2021/05/27 06:04:10;;;;;;;2.17;1.60;;;15.30;59.50;;;;;;5072119;28;20047;-81
2021/05/27 06:06:36;;;;;;;4.32;2.55;;;15.30;58.90;;;;;;5068877;28;20115;-82
2021/05/27 06:09:02;;;;;;;7.00;2.97;;;15.50;59.00;;;;;;5069486;28;20039;-82
2021/05/27 06:11:28;;;;;;;5.57;2.55;;;15.60;59.60;;;;;;5066608;28;20021;-81
2021/05/27 06:13:54;;;;;;;7.78;3.17;;;15.70;59.00;;;;;;5069486;28;20078;-83
2021/05/27 06:16:20;;;;;;;4.88;2.25;;;15.60;57.80;;;;;;5063160;28;20074;-82
2021/05/27 06:18:46;;;;;;;2.72;1.20;;;15.60;57.50;;;;;;5069654;28;20063;-81
2021/05/27 06:21:11;;;;;;;2.45;1.15;;;15.40;57.20;;;;;;5056785;28;20012;-81
2021/05/27 06:23:37;;;;;;;0.80;0.80;;;15.10;56.70;;;;;;5055496;28;20128;-81
2021/05/27 06:26:03;;;;;;;2.70;0.90;;;15.10;57.60;;;;;;5057496;28;20021;-81
2021/05/27 06:28:28;;;;;;;1.33;0.90;;;15.20;58.80;;;;;;5059928;28;20103;-80
2021/05/27 06:30:55;;;;;;;2.05;0.98;;;15.30;60.30;;;;;;5059083;28;20033;-81
2021/05/27 06:33:21;;;;;;;1.35;1.00;;;15.40;59.00;;;;;;5056117;28;20037;-83
2021/05/27 06:35:47;;;;;;;1.30;0.70;;;15.50;57.90;;;;;;5058274;28;20013;-82
2021/05/27 06:38:14;;;;;;;1.92;0.90;;;15.60;56.70;;;;;;5062149;28;20508;-83
2021/05/27 06:40:40;;;;;;;2.20;0.90;;;15.60;57.00;;;;;;5056596;28;20053;-83
2021/05/27 06:43:06;;;;;;;2.25;1.70;;;15.80;57.30;;;;;;5056360;28;20036;-82
2021/05/27 06:45:33;;;;;;;0.85;0.85;;;15.70;57.20;;;;;;5061619;28;20017;-82
2021/05/27 06:47:58;;;;;;;0.93;0.88;;;15.60;57.30;;;;;;5062899;28;20459;-83
2021/05/27 06:50:34;;;;;;;1.90;1.05;;;15.60;56.50;;;;;;5066845;28;20009;-83
2021/05/27 06:53:02;;;;;;;1.88;1.10;;;15.30;56.30;;;;;;5067640;28;20090;-83
2021/05/27 06:55:28;;;;;;;1.73;1.25;;;15.60;57.60;;;;;;5062572;28;20508;-82
2021/05/27 06:57:54;;;;;;;2.88;1.00;;;15.70;56.40;;;;;;5064958;28;20056;-83
2021/05/27 07:00:21;;;;;;;2.30;1.35;;;15.80;56.60;;;;;;5064467;28;20074;-82
2021/05/27 07:02:47;;;;;;;6.25;1.40;;;15.90;56.10;;;;;;5057387;28;20090;-82
2021/05/27 07:05:13;;;;;;;8.32;1.60;;;16.00;55.40;;;;;;5067323;28;20051;-82
2021/05/27 07:07:40;;;;;;;3.40;1.35;;;16.00;55.50;;;;;;5059176;28;20109;-76
2021/05/27 07:10:06;;;;;;;1.85;1.73;;;16.00;54.50;;;;;;5057346;28;20037;-77
2021/05/27 07:12:32;;;;;;;1.60;1.00;;;15.70;54.10;;;;;;5057856;28;20067;-77
2021/05/27 07:14:59;;;;;;;3.85;1.17;;;15.40;53.70;;;;;;5063305;28;20103;-76
2021/05/27 07:17:26;;;;;;;1.90;1.10;;;15.20;56.30;;;;;;5061802;28;20053;-76
2021/05/27 07:19:52;;;;;;;3.60;1.48;;;15.00;55.90;;;;;;5068121;28;20082;-76
2021/05/27 07:22:19;;;;;;;4.70;1.08;;;15.10;56.10;;;;;;5067924;28;20025;-76
2021/05/27 07:24:46;;;;;;;3.40;1.40;;;15.50;57.50;;;;;;5065782;28;20032;-77
2021/05/27 07:27:13;;;;;;;8.40;1.30;;;15.90;57.00;;;;;;5065676;28;20017;-77
2021/05/27 07:29:39;;;;;;;1.75;1.20;;;15.90;56.40;;;;;;5067790;28;20028;-78
2021/05/27 07:32:06;;;;;;;2.88;1.20;;;15.80;55.30;;;;;;5066340;28;20023;-77
2021/05/27 07:34:33;;;;;;;4.63;2.08;;;15.90;55.70;;;;;;5070424;28;20017;-77
2021/05/27 07:36:58;;;;;;;3.53;1.77;;;16.10;54.90;;;;;;5071653;28;20024;-77
2021/05/27 07:39:24;;;;;;;3.22;1.35;;;16.20;54.80;;;;;;5071730;28;20042;-76
2021/05/27 07:41:51;;;;;;;2.63;1.25;;;16.20;54.60;;;;;;5069718;28;20028;-78
2021/05/27 07:44:16;;;;;;;2.72;1.27;;;16.30;53.70;;;;;;5072835;28;20028;-77
2021/05/27 07:46:42;;;;;;;1.08;0.90;;;16.50;52.90;;;;;;5069780;28;20074;-76
2021/05/27 07:49:07;;;;;;;2.05;1.00;;;16.80;53.50;;;;;;5071536;28;20021;-77
2021/05/27 07:51:34;;;;;;;0.80;0.80;;;16.90;52.10;;;;;;5071676;28;20028;-75
2021/05/27 07:54:00;;;;;;;3.70;2.00;;;17.10;52.00;;;;;;5051323;28;20086;-75
2021/05/27 07:56:25;;;;;;;2.17;1.10;;;17.20;50.90;;;;;;5076006;28;20098;-83
2021/05/27 07:58:51;;;;;;;3.15;1.15;;;17.30;51.80;;;;;;5074624;28;20481;-83
2021/05/27 08:01:17;;;;;;;3.60;2.10;;;17.30;50.50;;;;;;5067445;28;20017;-83
2021/05/27 08:03:43;;;;;;;2.80;1.33;;;17.60;50.90;;;;;;5066119;28;20041;-82
2021/05/27 08:06:08;;;;;;;2.83;1.75;;;17.80;51.10;;;;;;5067454;28;20436;-83
2021/05/27 08:08:34;;;;;;;2.97;0.98;;;18.00;50.40;;;;;;5059837;28;20442;-84
2021/05/27 08:11:00;;;;;;;2.15;0.93;;;18.10;49.70;;;;;;5054009;28;20395;-83
2021/05/27 08:13:25;;;;;;;1.10;0.80;;;17.60;47.20;;;;;;5055236;28;20471;-84
2021/05/27 08:15:51;;;;;;;1.98;0.88;;;17.30;47.70;;;;;;5053932;28;20025;-83
2021/05/27 08:18:16;;;;;;;2.40;1.30;;;16.90;48.50;;;;;;5057106;28;20096;-82
2021/05/27 08:20:42;;;;;;;2.45;1.27;;;16.70;49.20;;;;;;5071920;28;20021;-82
2021/05/27 08:23:08;;;;;;;7.78;1.73;;;17.10;51.70;;;;;;5066999;28;20028;-82
2021/05/27 08:25:33;;;;;;;1.80;0.98;;;17.60;51.60;;;;;;5062592;28;20461;-83
2021/05/27 08:27:59;;;;;;;2.00;1.00;;;17.70;51.60;;;;;;5069796;28;20028;-82
2021/05/27 08:30:25;;;;;;;1.15;1.05;;;17.80;50.50;;;;;;5053936;28;20037;-82
2021/05/27 08:32:50;;;;;;;0.95;0.90;;;17.60;50.40;;;;;;5064454;28;20363;-83
2021/05/27 08:35:16;;;;;;;1.38;0.93;;;17.40;50.20;;;;;;5069205;28;20031;-82
2021/05/27 08:37:42;;;;;;;5.43;1.83;;;17.30;51.00;;;;;;5062828;28;20024;-83
2021/05/27 08:40:09;;;;;;;1.70;1.42;;;17.00;50.70;;;;;;5064660;28;20017;-83
2021/05/27 08:42:36;;;;;;;0.98;0.95;;;17.00;51.50;;;;;;5063315;28;20100;-84
2021/05/27 08:45:04;;;;;;;2.45;0.93;;;16.80;51.60;;;;;;5053501;28;20025;-83
2021/05/27 08:47:30;;;;;;;2.42;0.90;;;16.30;52.10;;;;;;5063059;28;20066;-84
2021/05/27 08:49:58;;;;;;;1.77;0.95;;;16.60;53.50;;;;;;5071991;28;20121;-84
2021/05/27 08:52:24;;;;;;;0.93;0.88;;;16.60;53.60;;;;;;5071958;28;20115;-83
2021/05/27 08:54:49;;;;;;;2.17;0.88;;;16.90;54.00;;;;;;5070880;28;20162;-83
2021/05/27 08:57:15;;;;;;;1.27;0.75;;;17.00;53.90;;;;;;5072015;28;20028;-83
2021/05/27 08:59:40;;;;;;;1.50;0.90;;;17.30;53.80;;;;;;5070863;28;20421;-82
2021/05/27 09:02:10;;;;;;;2.97;1.05;;;17.50;53.00;;;;;;5071523;28;20024;-83
2021/05/27 09:04:39;;;;;;;1.42;1.00;;;17.70;52.70;;;;;;5070922;28;20124;-83
2021/05/27 09:07:05;;;;;;;0.68;0.68;;;17.30;50.70;;;;;;5067711;28;20028;-83
2021/05/27 09:09:49;;;;;;;1.25;1.00;;;17.30;51.90;;;;;;5069562;28;20513;-83
2021/05/27 09:12:32;;;;;;;4.75;1.48;;;17.10;51.70;;;;;;5066283;28;20715;-84
2021/05/27 09:15:00;;;;;;;2.88;1.15;;;17.10;52.20;;;;;;5069180;28;20397;-86
2021/05/27 09:17:26;;;;;;;1.23;0.90;;;16.90;51.20;;;;;;5068242;28;20036;-84
2021/05/27 09:20:13;;;;;;;56.83;31.13;;;17.00;52.80;;;;;;5068096;28;20035;-82
2021/05/27 09:22:40;;;;;;;72.05;33.75;;;16.90;51.70;;;;;;5070728;28;20021;-83
2021/05/27 09:25:07;;;;;;;34.55;16.67;;;17.20;51.40;;;;;;5069741;28;20063;-84
2021/05/27 09:27:44;;;;;;;3.22;1.75;;;17.50;52.30;;;;;;5071806;28;20032;-83
2021/05/27 09:30:10;;;;;;;7.05;4.85;;;17.40;49.90;;;;;;5072075;28;20473;-84
2021/05/27 09:32:40;;;;;;;14.05;9.10;;;17.40;50.00;;;;;;5070572;28;20028;-84
2021/05/27 09:35:09;;;;;;;4.15;2.35;;;17.60;50.90;;;;;;5072345;28;20024;-84
2021/05/27 09:37:34;;;;;;;2.05;1.50;;;18.00;50.60;;;;;;5052187;28;20029;-84
2021/05/27 09:40:02;;;;;;;3.13;1.70;;;18.10;49.90;;;;;;5059633;28;20407;-84
2021/05/27 09:42:28;;;;;;;3.80;1.70;;;18.20;49.90;;;;;;5064804;28;20021;-84
2021/05/27 09:44:55;;;;;;;2.17;1.38;;;18.20;48.30;;;;;;5067667;28;20146;-83
2021/05/27 09:47:32;;;;;;;2.90;0.98;;;18.20;47.60;;;;;;5069139;28;20024;-84
2021/05/27 09:50:00;;;;;;;1.05;0.90;;;18.40;48.10;;;;;;5072141;28;20096;-84
2021/05/27 09:52:36;;;;;;;4.88;1.48;;;18.50;46.40;;;;;;5067655;28;20032;-83
2021/05/27 09:55:07;;;;;;;3.13;0.90;;;18.60;47.50;;;;;;5053330;28;20017;-84
2021/05/27 09:57:33;;;;;;;2.97;0.90;;;18.60;46.60;;;;;;5055513;28;20025;-84
2021/05/27 09:59:59;;;;;;;2.53;0.90;;;18.20;45.80;;;;;;5062921;28;20508;-84
2021/05/27 10:02:24;;;;;;;5.03;2.85;;;18.10;45.70;;;;;;5054081;28;20021;-84
2021/05/27 10:04:56;;;;;;;3.88;1.98;;;18.00;46.50;;;;;;5062644;28;20457;-84
2021/05/27 10:07:41;;;;;;;5.10;1.98;;;18.20;48.60;;;;;;5068446;28;20036;-84
2021/05/27 10:10:09;;;;;;;25.13;11.48;;;18.50;48.80;;;;;;5072950;28;20024;-84
2021/05/27 10:12:43;;;;;;;2.55;1.50;;;18.70;48.40;;;;;;5058929;28;20470;-84
2021/05/27 10:15:12;;;;;;;42.25;20.42;;;18.70;47.00;;;;;;5051766;28;20067;-84
2021/05/27 10:17:39;;;;;;;14.93;10.13;;;18.90;47.40;;;;;;5061718;28;20024;-84
2021/05/27 10:20:11;;;;;;;22.40;13.15;;;19.00;47.10;;;;;;5071575;28;20013;-83
2021/05/27 10:22:37;;;;;;;4.57;2.25;;;18.90;46.00;;;;;;5071201;28;20024;-84
2021/05/27 10:25:05;;;;;;;3.28;2.33;;;19.00;47.00;;;;;;5072201;28;20033;-83
2021/05/27 10:27:31;;;;;;;5.00;3.53;;;18.90;46.30;;;;;;5067158;28;20032;-83
2021/05/27 10:29:58;;;;;;;5.25;2.78;;;18.60;45.40;;;;;;5056357;28;20033;-83
2021/05/27 10:32:25;;;;;;;4.43;1.92;;;18.80;47.30;;;;;;5061477;28;20455;-84
2021/05/27 10:34:52;;;;;;;3.40;2.78;;;18.70;46.90;;;;;;5069520;28;20017;-84
2021/05/27 10:37:45;;;;;;;4.78;3.15;;;18.80;46.70;;;;;;5066623;28;20457;-84
2021/05/27 10:40:23;;;;;;;3.60;2.80;;;18.80;44.90;;;;;;5068008;28;20042;-83
2021/05/27 10:42:59;;;;;;;4.25;1.35;;;18.90;46.70;;;;;;5068857;28;20016;-83
2021/05/27 10:45:32;;;;;;;1.92;1.30;;;19.00;44.70;;;;;;5068679;28;20453;-84
2021/05/27 10:48:13;;;;;;;;;;;18.90;45.20;;;;;;5061007;28;20135;-83
2021/05/27 10:51:21;;;;;;;4.28;1.52;;;18.90;46.40;;;;;;5066335;28;19905;-83
2021/05/27 10:53:44;;;;;;;2.15;1.20;;;18.80;45.00;;;;;;5070019;28;20242;-83
2021/05/27 10:56:11;;;;;;;2.38;1.50;;;18.80;45.80;;;;;;5068390;28;20032;-83
2021/05/27 10:58:49;;;;;;;2.08;1.40;;;18.80;45.80;;;;;;5069048;28;20035;-83
2021/05/27 11:01:15;;;;;;;1.83;1.33;;;19.00;46.30;;;;;;5068672;28;20032;-84
2021/05/27 11:03:52;;;;;;;3.55;1.40;;;18.80;44.80;;;;;;5064719;28;20033;-84
2021/05/27 11:06:30;;;;;;;2.05;1.50;;;18.90;45.40;;;;;;5061233;28;20048;-85
2021/05/27 11:09:10;;;;;;;2.17;1.75;;;18.90;45.20;;;;;;5060245;28;20025;-84
2021/05/27 11:11:45;;;;;;;2.70;1.40;;;18.90;46.00;;;;;;5067011;28;20120;-84
2021/05/27 11:14:18;;;;;;;1.15;1.05;;;19.10;47.20;;;;;;5061838;28;20025;-84
2021/05/27 11:17:19;;;;;;;;;;;19.20;45.90;;;;;;5062770;28;20035;-84
2021/05/27 11:20:19;;;;;;;2.25;1.40;;;19.30;46.40;;;;;;5053830;28;19943;-85
2021/05/27 11:22:54;;;;;;;7.75;2.45;;;19.30;45.50;;;;;;5065462;28;20098;-84
2021/05/27 11:25:25;;;;;;;2.33;2.10;;;19.50;46.30;;;;;;5065328;28;20028;-85
2021/05/27 11:28:00;;;;;;;2.17;1.20;;;19.60;45.30;;;;;;5063747;28;20032;-85
2021/05/27 11:30:40;;;;;;;3.33;1.45;;;19.30;43.70;;;;;;5063954;28;20028;-85
2021/05/27 11:33:29;;;;;;;1.55;1.13;;;19.30;44.80;;;;;;5063596;28;20397;-83
2021/05/27 11:36:01;;;;;;;5.55;1.95;;;19.30;44.90;;;;;;5067965;28;20021;-83
2021/05/27 11:38:29;;;;;;;1.40;1.00;;;19.00;44.00;;;;;;5055833;28;20029;-84
2021/05/27 11:41:01;;;;;;;3.20;1.25;;;19.10;45.10;;;;;;5056453;28;20049;-84
2021/05/27 11:43:32;;;;;;;5.22;2.85;;;19.10;44.70;;;;;;5068822;28;20044;-84
2021/05/27 11:46:00;;;;;;;2.80;1.30;;;19.10;45.80;;;;;;5070966;28;20021;-84
2021/05/27 11:48:33;;;;;;;1.77;1.30;;;19.00;45.90;;;;;;5066174;28;20355;-83
2021/05/27 11:51:11;;;;;;;2.70;1.10;;;19.00;45.10;;;;;;5064038;28;20024;-83
2021/05/27 11:53:39;;;;;;;2.55;0.90;;;19.00;44.70;;;;;;5054339;28;20502;-84
2021/05/27 11:56:05;;;;;;;4.07;1.20;;;19.20;45.50;;;;;;5054424;28;20079;-83
2021/05/27 11:58:37;;;;;;;2.53;1.48;;;19.50;47.30;;;;;;5054181;28;20490;-84
2021/05/27 12:01:27;;;;;;;1.25;0.90;;;19.30;44.50;;;;;;5056382;28;20382;-84
2021/05/27 12:04:08;;;;;;;3.42;1.00;;;19.20;43.50;;;;;;5065291;28;20048;-84
2021/05/27 12:06:45;;;;;;;6.10;1.30;;;19.20;43.50;;;;;;5060813;28;20029;-84
2021/05/27 12:09:12;;;;;;;0.93;0.93;;;18.90;44.00;;;;;;5058922;28;20479;-83
2021/05/27 12:11:40;;;;;;;2.13;0.88;;;18.80;44.00;;;;;;5074485;28;20070;-84
2021/05/27 12:14:06;;;;;;;2.65;0.93;;;18.80;44.40;;;;;;5072292;28;20611;-84
2021/05/27 12:16:34;;;;;;;2.28;0.93;;;18.80;44.50;;;;;;5054742;28;20017;-83
2021/05/27 12:19:04;;;;;;;2.08;0.85;;;18.90;45.40;;;;;;5059349;28;20016;-83
2021/05/27 12:21:32;;;;;;;3.83;1.25;;;19.10;44.90;;;;;;5069414;28;20028;-83
2021/05/27 12:23:58;;;;;;;1.80;1.00;;;19.10;43.80;;;;;;5074165;28;20626;-84
2021/05/27 12:26:24;;;;;;;0.90;0.90;;;19.10;43.60;;;;;;5092317;28;20024;-84
2021/05/27 12:28:50;;;;;;;1.85;1.55;;;19.40;43.90;;;;;;5063095;28;20049;-84
2021/05/27 12:31:16;;;;;;;2.40;1.90;;;19.40;43.50;;;;;;5053335;28;20025;-84
2021/05/27 12:33:42;;;;;;;1.58;1.23;;;19.50;44.10;;;;;;5059464;28;20040;-83
2021/05/27 12:36:10;;;;;;;2.45;1.23;;;19.30;43.80;;;;;;5071071;28;20048;-82
2021/05/27 12:38:47;;;;;;;1.92;0.80;;;19.50;45.20;;;;;;5063974;28;20402;-84
2021/05/27 12:41:15;;;;;;;3.35;1.00;;;19.30;44.00;;;;;;5067191;28;20078;-83
2021/05/27 12:43:47;;;;;;;0.90;0.80;;;19.00;43.70;;;;;;5063892;28;20045;-83
2021/05/27 12:46:16;;;;;;;1.13;0.93;;;18.90;44.50;;;;;;5061283;28;20026;-83
2021/05/27 12:48:55;;;;;;;0.80;0.70;;;18.90;45.30;;;;;;5060038;28;20039;-82
2021/05/27 12:51:23;;;;;;;2.25;1.08;;;19.00;46.50;;;;;;5059859;28;20067;-81
2021/05/27 12:53:52;;;;;;;1.90;1.17;;;19.00;46.10;;;;;;5061365;28;20108;-82
2021/05/27 12:56:23;;;;;;;4.55;1.05;;;19.20;46.50;;;;;;5060292;28;20032;-83
2021/05/27 12:58:51;;;;;;;0.80;0.80;;;19.30;46.30;;;;;;5066319;28;20119;-82
2021/05/27 13:01:29;;;;;;;1.77;1.00;;;19.40;46.40;;;;;;5068581;28;20052;-82